createdAt,value
2018-09-30T08:22:41.018Z,35.29
2018-09-30T08:25:09.273Z,35.30
2018-09-30T08:27:37.605Z,36.89
2018-09-30T08:30:06.165Z,35.78
2018-09-30T08:32:34.474Z,34.17
2018-09-30T08:35:02.746Z,36.87
2018-09-30T08:37:36.472Z,37.23
2018-09-30T08:40:04.815Z,36.70
2018-09-30T08:42:33.090Z,39.23
2018-09-30T08:45:01.250Z,42.64
2018-09-30T08:47:29.455Z,42.85
2018-09-30T08:49:57.658Z,44.11
2018-09-30T08:52:26.038Z,42.81
2018-09-30T08:54:54.278Z,45.33
2018-09-30T08:57:22.510Z,44.03
2018-09-30T08:59:50.869Z,45.30
2018-09-30T09:02:19.051Z,46.16
2018-09-30T09:04:47.310Z,44.79
2018-09-30T09:07:15.590Z,43.40
2018-09-30T09:09:44.379Z,43.61
2018-09-30T09:12:12.690Z,44.57
2018-09-30T09:14:41.031Z,44.88
2018-09-30T09:17:09.218Z,44.04
2018-09-30T09:19:37.490Z,43.90
2018-09-30T09:22:05.830Z,44.25
2018-09-30T09:24:36.730Z,44.00
2018-09-30T09:27:06.274Z,44.94
2018-09-30T09:29:34.593Z,44.85
2018-09-30T09:32:02.766Z,44.56
2018-09-30T09:34:30.966Z,44.68
2018-09-30T09:36:59.267Z,45.12
2018-09-30T09:39:27.526Z,45.04
2018-09-30T09:41:55.686Z,44.20
2018-09-30T09:44:23.970Z,44.41
2018-09-30T09:46:52.056Z,45.15
2018-09-30T09:49:20.314Z,45.26
2018-09-30T09:51:48.405Z,45.27
2018-09-30T09:54:16.666Z,44.79
2018-09-30T09:56:44.726Z,45.40
2018-09-30T09:59:13.203Z,46.84
2018-09-30T10:01:41.445Z,45.06
2018-09-30T10:04:09.754Z,45.42
2018-09-30T10:06:38.074Z,43.97
2018-09-30T10:09:06.586Z,44.24
2018-09-30T10:11:34.774Z,44.01
2018-09-30T10:14:03.183Z,43.84
2018-09-30T10:16:31.325Z,44.51
2018-09-30T10:18:59.553Z,44.98
2018-09-30T10:21:27.826Z,45.09
2018-09-30T10:23:56.047Z,44.29
2018-09-30T10:26:24.305Z,44.81
2018-09-30T10:28:52.486Z,43.91
2018-09-30T10:31:20.725Z,43.80
2018-09-30T10:33:48.925Z,43.90
2018-09-30T10:36:17.265Z,43.70
2018-09-30T10:38:45.510Z,44.42
2018-09-30T10:41:13.726Z,45.26
2018-09-30T10:43:41.794Z,43.78
2018-09-30T10:46:10.053Z,43.94
2018-09-30T10:48:38.194Z,44.49
2018-09-30T10:51:06.454Z,44.60
2018-09-30T10:53:34.686Z,42.93
2018-09-30T10:56:03.045Z,44.64
2018-09-30T10:58:31.185Z,41.90
2018-09-30T11:00:59.380Z,39.04
2018-09-30T11:03:27.591Z,36.46
2018-09-30T11:05:55.775Z,35.45
2018-09-30T11:08:23.944Z,34.70
2018-09-30T11:10:52.223Z,33.72
2018-09-30T11:13:20.394Z,33.52
2018-09-30T11:15:48.655Z,32.85
2018-09-30T11:18:16.754Z,34.64
2018-09-30T11:20:44.956Z,36.22
2018-09-30T11:23:13.168Z,37.32
2018-09-30T11:25:41.275Z,38.14
2018-09-30T11:28:09.475Z,38.06
2018-09-30T11:30:37.595Z,38.68
2018-09-30T11:33:05.807Z,39.06
2018-09-30T11:35:34.143Z,40.12
2018-09-30T11:38:02.416Z,41.36
2018-09-30T11:40:30.595Z,41.34
2018-09-30T11:46:30.837Z,42.04
2018-09-30T12:15:22.528Z,40.45
2018-09-30T20:31:30.541Z,70.75
2018-09-30T20:33:58.559Z,71.05
2018-09-30T20:36:27.180Z,70.72
2018-09-30T20:38:55.368Z,69.92
2018-09-30T20:41:23.919Z,70.85
2018-09-30T20:43:52.508Z,70.77
2018-09-30T20:46:20.776Z,70.16
2018-09-30T20:48:49.011Z,70.04
2018-09-30T20:51:17.057Z,70.33
2018-09-30T20:53:45.143Z,70.53
2018-09-30T20:56:13.194Z,70.26
2018-09-30T20:58:41.267Z,69.87
2018-09-30T21:01:09.214Z,69.42
2018-09-30T21:03:37.676Z,69.06
2018-09-30T21:06:12.577Z,67.54
2018-09-30T21:08:40.724Z,68.66
2018-09-30T21:11:08.916Z,69.89
2018-09-30T21:13:37.578Z,69.59
2018-09-30T21:16:05.904Z,69.64
2018-09-30T21:18:34.119Z,69.44
2018-09-30T21:21:02.304Z,69.45
2018-09-30T21:23:30.517Z,68.49
2018-09-30T21:25:58.677Z,69.16
2018-09-30T21:28:26.906Z,67.76
2018-09-30T21:30:55.437Z,68.11
2018-09-30T21:33:24.322Z,67.69
2018-09-30T21:35:52.722Z,68.27
2018-09-30T21:38:20.906Z,69.08
2018-09-30T21:40:49.169Z,69.03
2018-09-30T21:43:18.389Z,69.35
2018-09-30T21:45:46.637Z,70.08
2018-09-30T21:48:16.209Z,70.39
2018-09-30T21:50:44.509Z,69.87
2018-09-30T21:53:13.671Z,69.60
2018-09-30T21:55:41.877Z,69.06
2018-09-30T21:58:10.218Z,69.72
2018-09-30T22:00:40.418Z,69.55
2018-09-30T22:03:10.378Z,69.73
2018-09-30T22:05:38.709Z,70.18
2018-09-30T22:08:08.537Z,68.97
2018-09-30T22:10:37.499Z,68.23
2018-09-30T22:13:06.138Z,68.14
2018-09-30T22:15:34.489Z,67.90
2018-09-30T22:18:02.998Z,67.21
2018-09-30T22:20:31.338Z,67.46
2018-09-30T22:22:59.551Z,67.45
2018-09-30T22:25:27.698Z,67.01
2018-09-30T22:27:56.118Z,67.72
2018-09-30T22:30:24.238Z,68.71
2018-09-30T22:32:52.417Z,67.83
2018-09-30T22:35:20.601Z,66.77
2018-09-30T22:37:48.857Z,66.22
2018-09-30T22:40:17.095Z,66.05
2018-09-30T22:42:45.397Z,65.78
2018-09-30T22:45:13.578Z,66.40
2018-09-30T22:47:41.678Z,66.42
2018-09-30T22:50:09.998Z,64.22
2018-09-30T22:52:38.158Z,65.76
2018-09-30T22:55:06.438Z,67.80
2018-09-30T22:57:34.760Z,68.39
2018-09-30T23:00:03.269Z,68.58
2018-09-30T23:02:31.580Z,68.95
2018-09-30T23:04:59.830Z,69.87
2018-09-30T23:07:27.882Z,69.94
2018-09-30T23:09:56.335Z,69.71
2018-09-30T23:12:24.621Z,70.06
2018-09-30T23:14:52.935Z,69.82
2018-09-30T23:17:21.189Z,69.92
2018-09-30T23:19:49.427Z,70.21
2018-09-30T23:22:17.588Z,70.03
2018-09-30T23:24:45.807Z,70.35
2018-09-30T23:27:13.947Z,70.60
2018-09-30T23:29:42.207Z,69.85
2018-09-30T23:32:10.387Z,69.93
2018-09-30T23:34:38.707Z,70.08
2018-09-30T23:37:06.927Z,68.33
2018-09-30T23:39:35.189Z,67.84
2018-09-30T23:42:03.367Z,67.14
2018-09-30T23:44:31.575Z,67.44
2018-09-30T23:46:59.895Z,67.26
2018-09-30T23:49:28.097Z,67.15
2018-09-30T23:51:56.236Z,67.90
2018-09-30T23:54:24.807Z,69.15
2018-09-30T23:56:52.947Z,69.07
2018-09-30T23:59:21.147Z,69.34
